createdAt,value
2019-04-27T00:00:14.286Z,13.40
2019-04-27T00:02:44.661Z,13.30
2019-04-27T00:05:17.680Z,13.10
2019-04-27T00:07:51.395Z,12.90
2019-04-27T00:10:31.359Z,12.90
2019-04-27T00:13:02.186Z,13.10
2019-04-27T00:15:34.395Z,13.10
2019-04-27T00:18:04.254Z,13.00
2019-04-27T00:20:40.171Z,13.00
2019-04-27T00:23:10.470Z,12.80
2019-04-27T00:25:39.144Z,12.90
2019-04-27T00:28:07.887Z,13.00
2019-04-27T00:30:36.637Z,13.00
2019-04-27T00:33:05.503Z,13.00
2019-04-27T00:35:36.218Z,13.10
2019-04-27T00:38:09.426Z,13.10
2019-04-27T00:40:39.753Z,13.00
2019-04-27T00:43:08.411Z,12.90
2019-04-27T00:45:37.237Z,12.80
2019-04-27T00:48:06.020Z,12.70
2019-04-27T00:50:34.683Z,12.40
2019-04-27T00:53:03.540Z,12.30
2019-04-27T00:55:34.110Z,12.10
2019-04-27T00:58:04.403Z,12.10
2019-04-27T01:00:40.426Z,12.10
2019-04-27T01:03:13.939Z,11.90
2019-04-27T01:05:43.165Z,11.80
2019-04-27T01:08:13.790Z,11.60
2019-04-27T01:10:43.549Z,11.60
2019-04-27T01:13:13.257Z,11.50
2019-04-27T01:15:43.027Z,11.40
2019-04-27T01:18:15.329Z,11.40
2019-04-27T01:20:42.362Z,11.50
2019-04-27T01:23:11.028Z,11.60
2019-04-27T01:25:41.315Z,11.60
2019-04-27T01:28:20.629Z,11.60
2019-04-27T01:30:54.014Z,11.50
2019-04-27T01:33:22.759Z,11.40
2019-04-27T01:35:51.407Z,11.40
2019-04-27T01:38:20.099Z,11.50
2019-04-27T01:40:49.830Z,11.60
2019-04-27T01:43:18.693Z,11.60
2019-04-27T01:45:48.819Z,11.50
2019-04-27T01:48:23.724Z,11.30
2019-04-27T01:50:49.229Z,11.40
2019-04-27T01:53:19.036Z,11.60
2019-04-27T01:55:49.137Z,11.60
2019-04-27T01:58:20.126Z,11.70
2019-04-27T02:00:52.688Z,11.70
2019-04-27T02:03:33.207Z,11.60
2019-04-27T02:05:59.436Z,11.70
2019-04-27T02:08:28.620Z,11.70
2019-04-27T02:10:59.280Z,11.70
2019-04-27T02:13:29.030Z,11.80
2019-04-27T02:15:58.817Z,11.90
2019-04-27T02:18:35.633Z,11.90
2019-04-27T02:20:59.126Z,11.90
2019-04-27T02:23:29.355Z,11.90
2019-04-27T02:25:58.689Z,11.90
2019-04-27T02:28:47.115Z,11.90
2019-04-27T02:31:26.211Z,11.90
2019-04-27T02:34:02.511Z,11.70
2019-04-27T02:36:31.233Z,11.60
2019-04-27T02:38:59.882Z,11.50
2019-04-27T02:41:29.745Z,11.40
2019-04-27T02:44:01.731Z,11.50
2019-04-27T02:46:31.587Z,11.40
2019-04-27T02:49:06.069Z,11.50
2019-04-27T02:51:35.172Z,11.50
2019-04-27T02:54:03.919Z,11.60
2019-04-27T02:56:32.643Z,11.60
2019-04-27T02:59:01.303Z,11.60
2019-04-27T03:01:31.683Z,11.60
2019-04-27T03:04:00.653Z,11.50
2019-04-27T03:06:30.218Z,11.50
2019-04-27T03:09:00.490Z,11.50
2019-04-27T03:11:30.997Z,11.40
2019-04-27T03:14:29.423Z,11.30
2019-04-27T03:17:05.685Z,11.20
2019-04-27T03:19:39.796Z,11.10
2019-04-27T03:22:16.590Z,10.90
2019-04-27T03:25:00.193Z,10.90
2019-04-27T03:27:45.913Z,10.90
2019-04-27T03:30:16.075Z,10.90
2019-04-27T03:32:44.937Z,10.70
2019-04-27T03:35:14.246Z,10.80
2019-04-27T03:37:43.116Z,10.70
2019-04-27T03:40:12.094Z,10.60
2019-04-27T03:42:42.384Z,10.60
2019-04-27T03:45:11.211Z,10.50
2019-04-27T03:47:40.965Z,10.50
2019-04-27T03:50:12.418Z,10.60
2019-04-27T03:52:42.786Z,10.60
2019-04-27T03:55:19.756Z,10.70
2019-04-27T03:58:00.069Z,10.70
2019-04-27T04:00:30.780Z,10.70
2019-04-27T04:03:00.532Z,10.60
2019-04-27T04:05:30.045Z,10.50
2019-04-27T04:08:00.418Z,10.50
2019-04-27T04:10:31.135Z,10.70
2019-04-27T04:13:01.906Z,10.80
2019-04-27T04:15:41.428Z,10.90
2019-04-27T04:18:10.126Z,10.90
2019-04-27T04:20:40.485Z,10.70
2019-04-27T04:23:10.551Z,10.80
2019-04-27T04:25:40.961Z,10.70
2019-04-27T04:28:09.912Z,10.70
2019-04-27T04:30:40.296Z,10.80
2019-04-27T04:33:10.153Z,10.70
2019-04-27T04:35:39.913Z,10.70
2019-04-27T04:38:10.378Z,10.50
2019-04-27T04:40:46.773Z,10.60
2019-04-27T04:43:25.938Z,10.70
2019-04-27T04:46:12.765Z,10.80
2019-04-27T04:48:40.364Z,10.70
2019-04-27T04:51:10.070Z,10.80
2019-04-27T04:53:40.560Z,11.00
2019-04-27T04:56:10.672Z,11.10
2019-04-27T04:58:42.727Z,11.20
2019-04-27T05:01:11.450Z,11.20
2019-04-27T05:03:40.183Z,11.30
2019-04-27T05:06:08.907Z,11.30
2019-04-27T05:08:39.264Z,11.20
2019-04-27T05:11:09.670Z,11.30
2019-04-27T05:13:39.347Z,11.40
2019-04-27T05:16:08.977Z,11.40
2019-04-27T05:18:39.257Z,11.30
2019-04-27T05:21:18.805Z,11.30
2019-04-27T05:23:48.713Z,11.30
2019-04-27T05:26:19.016Z,11.40
2019-04-27T05:28:49.195Z,11.60
2019-04-27T05:31:19.509Z,11.80
2019-04-27T05:33:49.054Z,11.80
2019-04-27T05:36:19.266Z,11.80
2019-04-27T05:38:49.660Z,11.80
2019-04-27T05:41:23.798Z,11.90
2019-04-27T05:43:59.185Z,12.00
2019-04-27T05:46:45.891Z,12.10
2019-04-27T05:49:20.611Z,12.10
2019-04-27T05:51:50.153Z,12.30
2019-04-27T05:54:19.866Z,12.50
2019-04-27T05:56:49.294Z,12.60
2019-04-27T05:59:19.833Z,12.70
2019-04-27T06:01:49.316Z,12.80
2019-04-27T06:04:19.282Z,12.90
2019-04-27T06:06:50.322Z,13.00
2019-04-27T06:09:19.536Z,13.00
2019-04-27T06:11:48.639Z,13.20
2019-04-27T06:14:19.243Z,13.20
2019-04-27T06:16:50.954Z,13.30
2019-04-27T06:19:19.327Z,13.20
2019-04-27T06:21:49.826Z,13.30
2019-04-27T06:24:18.689Z,13.40
2019-04-27T06:26:49.635Z,13.40
2019-04-27T06:29:19.380Z,13.40
2019-04-27T06:31:49.600Z,13.50
2019-04-27T06:34:19.389Z,13.60
2019-04-27T06:36:48.648Z,13.70
2019-04-27T06:39:18.919Z,13.80
2019-04-27T06:41:49.083Z,13.90
2019-04-27T06:44:19.574Z,13.80
2019-04-27T06:46:49.019Z,13.60
2019-04-27T06:49:19.474Z,13.60
2019-04-27T06:51:49.791Z,13.70
2019-04-27T06:54:21.054Z,13.70
2019-04-27T06:56:49.280Z,13.90
2019-04-27T06:59:18.637Z,13.90
2019-04-27T07:01:48.862Z,13.80
2019-04-27T07:04:19.419Z,14.00
2019-04-27T07:06:54.204Z,14.00
2019-04-27T07:09:19.625Z,13.90
2019-04-27T07:11:49.438Z,14.10
2019-04-27T07:14:19.702Z,14.30
2019-04-27T07:16:48.847Z,14.30
2019-04-27T07:19:19.120Z,14.50
2019-04-27T07:21:49.631Z,14.60
2019-04-27T07:24:19.659Z,14.80
2019-04-27T07:26:48.931Z,14.80
2019-04-27T07:29:19.391Z,14.60
2019-04-27T07:31:49.557Z,14.60
2019-04-27T07:34:19.014Z,14.70
2019-04-27T07:36:49.097Z,14.90
2019-04-27T07:39:19.235Z,15.00
2019-04-27T07:41:48.781Z,15.20
2019-04-27T07:44:34.586Z,15.40
2019-04-27T07:47:19.820Z,15.40
2019-04-27T07:49:49.637Z,15.50
2019-04-27T07:52:20.425Z,15.60
2019-04-27T07:54:49.324Z,15.70
2019-04-27T07:57:19.739Z,15.90
2019-04-27T07:59:50.097Z,15.90
2019-04-27T08:02:19.226Z,15.90
2019-04-27T08:04:50.305Z,16.00
2019-04-27T08:07:19.679Z,16.00
2019-04-27T08:09:49.663Z,16.20
2019-04-27T08:12:20.670Z,16.10
2019-04-27T08:14:49.234Z,16.20
2019-04-27T08:17:19.119Z,16.20
2019-04-27T08:19:49.606Z,16.30
2019-04-27T08:22:19.335Z,16.40
2019-04-27T08:24:49.574Z,16.40
2019-04-27T08:27:32.480Z,16.50
2019-04-27T08:30:02.770Z,16.60
2019-04-27T08:32:33.089Z,16.80
2019-04-27T08:35:01.810Z,16.80
2019-04-27T08:37:30.502Z,16.90
2019-04-27T08:39:59.262Z,17.00
2019-04-27T08:42:29.363Z,17.10
2019-04-27T08:44:59.406Z,17.10
2019-04-27T08:47:29.314Z,17.40
2019-04-27T08:49:59.108Z,17.50
2019-04-27T08:52:28.981Z,17.60
2019-04-27T08:54:59.414Z,17.60
2019-04-27T08:57:28.978Z,17.70
2019-04-27T08:59:59.707Z,17.80
2019-04-27T09:02:39.759Z,17.80
2019-04-27T09:04:59.633Z,18.20
2019-04-27T09:07:39.798Z,18.30
2019-04-27T09:10:13.944Z,18.20
2019-04-27T09:12:47.133Z,18.50
2019-04-27T09:15:19.161Z,18.80
2019-04-27T09:17:52.262Z,18.90
2019-04-27T09:20:22.640Z,18.80
2019-04-27T09:22:51.374Z,19.00
2019-04-27T09:25:20.096Z,19.20
2019-04-27T09:27:49.298Z,19.30
2019-04-27T09:30:19.074Z,19.10
2019-04-27T09:32:47.940Z,19.10
2019-04-27T09:35:16.666Z,19.40
2019-04-27T09:37:45.848Z,19.30
2019-04-27T09:40:15.068Z,19.60
2019-04-27T09:42:43.723Z,19.80
2019-04-27T09:45:12.722Z,20.10
2019-04-27T09:47:41.382Z,20.30
2019-04-27T09:50:10.404Z,20.50
2019-04-27T09:52:39.048Z,20.90
2019-04-27T09:55:08.508Z,21.30
2019-04-27T09:57:37.321Z,21.80
2019-04-27T10:00:11.200Z,22.20
2019-04-27T10:02:39.921Z,22.70
2019-04-27T10:05:08.855Z,23.50
2019-04-27T10:07:37.508Z,24.20
2019-04-27T10:10:07.808Z,24.70
2019-04-27T10:12:36.981Z,25.20
2019-04-27T10:15:06.943Z,25.20
2019-04-27T10:17:35.599Z,25.50
2019-04-27T10:20:06.146Z,25.70
2019-04-27T10:22:41.194Z,25.80
2019-04-27T10:25:09.926Z,25.40
2019-04-27T10:27:38.583Z,25.60
2019-04-27T10:30:10.953Z,26.00
2019-04-27T10:32:39.597Z,26.10
2019-04-27T10:35:08.461Z,26.20
2019-04-27T10:37:37.194Z,26.00
2019-04-27T10:40:06.254Z,26.60
2019-04-27T10:42:35.820Z,27.70
2019-04-27T10:45:06.558Z,28.20
2019-04-27T10:47:36.027Z,27.80
2019-04-27T10:50:06.411Z,27.00
2019-04-27T10:52:35.180Z,27.10
2019-04-27T10:55:05.956Z,27.70
2019-04-27T10:57:34.888Z,27.20
2019-04-27T11:00:06.682Z,26.90
2019-04-27T11:02:35.591Z,27.30
2019-04-27T11:05:14.439Z,27.10
2019-04-27T11:07:43.240Z,27.10
2019-04-27T11:10:12.104Z,27.20
2019-04-27T11:12:40.768Z,26.90
2019-04-27T11:15:10.669Z,27.40
2019-04-27T11:17:39.423Z,28.00
2019-04-27T11:20:09.017Z,29.00
2019-04-27T11:22:37.850Z,29.60
2019-04-27T11:25:10.546Z,29.40
2019-04-27T11:27:39.238Z,28.50
2019-04-27T11:30:09.463Z,28.20
2019-04-27T11:32:38.238Z,27.40
2019-04-27T11:35:15.664Z,27.00
2019-04-27T11:37:48.350Z,27.90
2019-04-27T11:40:18.671Z,28.40
2019-04-27T11:42:47.393Z,28.10
2019-04-27T11:45:17.659Z,28.00
2019-04-27T11:47:46.378Z,28.30
2019-04-27T11:50:16.549Z,27.70
2019-04-27T11:52:45.777Z,27.20
2019-04-27T11:55:16.244Z,27.10
2019-04-27T11:57:44.969Z,27.40
2019-04-27T12:00:16.614Z,27.30
2019-04-27T12:02:45.779Z,27.70
2019-04-27T12:05:16.135Z,28.30
2019-04-27T12:07:47.534Z,28.60
2019-04-27T12:10:16.605Z,28.80
2019-04-27T12:12:46.358Z,28.80
2019-04-27T12:15:16.154Z,29.10
2019-04-27T12:17:46.147Z,29.40
2019-04-27T12:20:15.950Z,28.60
2019-04-27T12:22:45.698Z,28.40
2019-04-27T12:25:15.555Z,27.90
2019-04-27T12:27:57.750Z,27.90
2019-04-27T12:30:43.231Z,27.80
2019-04-27T12:33:12.065Z,28.20
2019-04-27T12:35:40.712Z,28.80
2019-04-27T12:38:09.370Z,29.00
2019-04-27T12:40:38.098Z,28.30
2019-04-27T12:43:06.819Z,28.10
2019-04-27T12:45:36.967Z,28.10
2019-04-27T12:48:06.123Z,28.90
2019-04-27T12:50:36.159Z,28.80
2019-04-27T12:53:09.346Z,28.80
2019-04-27T12:55:42.511Z,28.80
2019-04-27T12:58:27.937Z,28.80
2019-04-27T13:01:07.256Z,29.50
2019-04-27T13:03:36.266Z,29.60
2019-04-27T13:06:04.854Z,29.20
2019-04-27T13:08:33.591Z,29.00
2019-04-27T13:11:02.251Z,29.10
2019-04-27T13:13:30.950Z,29.10
2019-04-27T13:16:01.475Z,29.60
2019-04-27T13:18:30.313Z,30.00
2019-04-27T13:20:58.977Z,29.60
2019-04-27T13:23:28.563Z,28.80
2019-04-27T13:25:57.376Z,28.80
2019-04-27T13:28:26.035Z,29.50
2019-04-27T13:30:55.955Z,30.20
2019-04-27T13:33:26.337Z,29.70
2019-04-27T13:35:55.076Z,29.90
2019-04-27T13:38:23.837Z,29.80
2019-04-27T13:41:08.314Z,29.90
2019-04-27T13:43:37.909Z,30.20
2019-04-27T13:46:09.160Z,30.40
2019-04-27T13:48:56.258Z,30.80
2019-04-27T13:51:32.311Z,30.50
2019-04-27T13:54:01.042Z,30.30
2019-04-27T13:56:29.739Z,30.00
2019-04-27T13:58:58.656Z,29.70
2019-04-27T14:01:27.308Z,29.50
2019-04-27T14:03:56.039Z,29.10
2019-04-27T14:06:24.763Z,28.90
2019-04-27T14:08:53.499Z,29.80
2019-04-27T14:11:22.206Z,30.60
2019-04-27T14:13:50.962Z,31.10
2019-04-27T14:16:19.619Z,31.20
2019-04-27T14:18:48.269Z,31.90
2019-04-27T14:21:16.925Z,32.60
2019-04-27T14:23:45.639Z,32.00
2019-04-27T14:26:14.399Z,31.20
2019-04-27T14:28:43.087Z,30.60
2019-04-27T14:31:11.798Z,31.40
2019-04-27T14:33:40.512Z,32.30
2019-04-27T14:36:09.277Z,32.20
2019-04-27T14:38:37.926Z,31.00
2019-04-27T14:41:08.932Z,30.50
2019-04-27T14:43:37.424Z,31.10
2019-04-27T14:46:08.053Z,30.50
2019-04-27T14:48:36.600Z,30.00
2019-04-27T14:51:05.353Z,30.60
2019-04-27T14:53:34.032Z,30.50
2019-04-27T14:56:02.684Z,31.00
2019-04-27T14:58:31.439Z,31.70
2019-04-27T15:01:00.127Z,31.80
2019-04-27T15:03:28.780Z,31.10
2019-04-27T15:05:57.443Z,30.50
2019-04-27T15:08:26.157Z,30.70
2019-04-27T15:10:54.919Z,30.40
2019-04-27T15:13:23.606Z,31.00
2019-04-27T15:15:52.269Z,31.60
2019-04-27T15:18:22.834Z,31.90
2019-04-27T15:20:51.790Z,31.60
2019-04-27T15:23:20.629Z,31.50
2019-04-27T15:25:49.993Z,31.10
2019-04-27T15:28:20.465Z,30.80
2019-04-27T15:30:53.568Z,30.50
2019-04-27T15:33:23.172Z,30.30
2019-04-27T15:35:53.526Z,29.70
2019-04-27T15:38:26.671Z,29.50
2019-04-27T15:40:58.210Z,29.20
2019-04-27T15:43:30.859Z,29.10
2019-04-27T15:45:59.203Z,29.00
2019-04-27T15:48:30.662Z,29.40
2019-04-27T15:51:02.806Z,29.00
2019-04-27T15:53:28.627Z,27.80
2019-04-27T15:56:00.547Z,26.80
2019-04-27T15:58:28.409Z,26.30
2019-04-27T16:01:01.040Z,26.60
2019-04-27T16:03:31.377Z,26.70
2019-04-27T16:06:03.311Z,26.70
2019-04-27T16:08:29.869Z,26.60
2019-04-27T16:10:58.923Z,26.00
2019-04-27T16:13:32.689Z,25.40
2019-04-27T16:15:59.490Z,25.00
2019-04-27T16:18:30.936Z,24.60
2019-04-27T16:20:58.661Z,24.10
2019-04-27T16:23:28.190Z,23.90
2019-04-27T16:25:58.194Z,24.00
2019-04-27T16:28:27.574Z,24.20
2019-04-27T16:30:58.070Z,24.20
2019-04-27T16:33:26.630Z,24.20
2019-04-27T16:36:00.286Z,23.80
2019-04-27T16:38:33.417Z,23.70
2019-04-27T16:41:01.228Z,23.60
2019-04-27T16:43:32.539Z,23.40
2019-04-27T16:46:04.196Z,23.10
2019-04-27T16:48:34.432Z,22.90
2019-04-27T16:51:00.762Z,22.80
2019-04-27T16:53:30.049Z,22.70
2019-04-27T16:56:14.536Z,22.80
2019-04-27T16:58:39.517Z,22.80
2019-04-27T17:01:24.123Z,22.80
2019-04-27T17:03:52.914Z,22.60
2019-04-27T17:06:21.645Z,22.30
2019-04-27T17:08:50.290Z,22.30
2019-04-27T17:11:19.589Z,22.30
2019-04-27T17:14:02.442Z,22.40
2019-04-27T17:16:50.874Z,22.30
2019-04-27T17:19:21.169Z,22.20
2019-04-27T17:21:49.970Z,22.00
2019-04-27T17:24:42.221Z,21.90
2019-04-27T17:27:11.507Z,21.90
2019-04-27T17:29:40.493Z,21.90
2019-04-27T17:32:10.932Z,22.00
2019-04-27T17:34:39.778Z,21.90
2019-04-27T17:37:08.555Z,21.80
2019-04-27T17:39:38.699Z,21.80
2019-04-27T17:42:08.497Z,21.70
2019-04-27T17:44:39.202Z,21.80
2019-04-27T17:47:08.840Z,21.70
2019-04-27T17:49:38.201Z,21.50
2019-04-27T17:52:08.649Z,21.40
2019-04-27T17:54:42.462Z,21.20
2019-04-27T17:57:10.410Z,21.20
2019-04-27T17:59:37.968Z,21.10
2019-04-27T18:02:08.777Z,21.10
2019-04-27T18:04:40.751Z,21.00
2019-04-27T18:07:08.930Z,20.90
2019-04-27T18:09:43.327Z,20.80
2019-04-27T18:12:14.686Z,20.80
2019-04-27T18:14:41.221Z,20.70
2019-04-27T18:17:12.124Z,20.70
2019-04-27T18:19:46.388Z,20.60
2019-04-27T18:22:15.037Z,20.50
2019-04-27T18:24:47.913Z,20.30
2019-04-27T18:27:33.640Z,20.20
2019-04-27T18:30:08.434Z,20.10
2019-04-27T18:32:40.278Z,20.00
2019-04-27T18:35:08.471Z,19.90
2019-04-27T18:37:38.881Z,19.90
2019-04-27T18:40:09.342Z,19.80
2019-04-27T18:42:38.527Z,19.70
2019-04-27T18:45:08.390Z,19.60
2019-04-27T18:47:40.517Z,19.70
2019-04-27T18:50:17.908Z,19.70
2019-04-27T18:52:50.234Z,19.70
2019-04-27T18:55:20.966Z,19.70
2019-04-27T18:57:53.200Z,19.60
2019-04-27T19:00:21.502Z,19.60
2019-04-27T19:02:50.500Z,19.60
2019-04-27T19:05:20.507Z,19.60
2019-04-27T19:07:50.945Z,19.50
2019-04-27T19:10:21.248Z,19.40
2019-04-27T19:12:50.118Z,19.40
2019-04-27T19:15:22.606Z,19.40
2019-04-27T19:17:51.537Z,19.30
2019-04-27T19:20:20.335Z,19.30
2019-04-27T19:22:49.249Z,19.30
2019-04-27T19:25:31.800Z,19.30
2019-04-27T19:28:18.712Z,19.40
2019-04-27T19:31:04.272Z,19.40
2019-04-27T19:33:33.006Z,19.40
2019-04-27T19:36:03.891Z,19.30
2019-04-27T19:38:32.271Z,19.30
2019-04-27T19:41:01.061Z,19.20
2019-04-27T19:43:29.867Z,19.20
2019-04-27T19:45:59.841Z,19.10
2019-04-27T19:48:28.738Z,19.00
2019-04-27T19:50:57.540Z,19.10
2019-04-27T19:53:26.347Z,19.10
2019-04-27T19:56:04.148Z,19.00
2019-04-27T19:58:38.154Z,19.00
2019-04-27T20:01:14.494Z,19.10
2019-04-27T20:03:44.665Z,19.10
2019-04-27T20:06:13.585Z,19.10
2019-04-27T20:08:44.963Z,19.00
2019-04-27T20:11:13.835Z,19.00
2019-04-27T20:13:44.091Z,19.00
2019-04-27T20:16:12.903Z,18.90
2019-04-27T20:18:43.355Z,18.80
2019-04-27T20:21:13.536Z,18.60
2019-04-27T20:23:42.307Z,18.50
2019-04-27T20:26:11.094Z,18.50
2019-04-27T20:28:41.416Z,18.40
2019-04-27T20:31:10.314Z,18.30
2019-04-27T20:33:39.055Z,18.20
2019-04-27T20:36:07.894Z,18.10
2019-04-27T20:38:36.549Z,18.10
2019-04-27T20:41:05.266Z,18.10
2019-04-27T20:43:33.955Z,17.90
2019-04-27T20:46:02.614Z,17.80
2019-04-27T20:48:31.377Z,17.90
2019-04-27T20:51:01.268Z,17.80
2019-04-27T20:53:34.311Z,17.90
2019-04-27T20:56:03.021Z,17.70
2019-04-27T20:58:31.691Z,17.60
2019-04-27T21:01:01.701Z,17.50
2019-04-27T21:03:32.798Z,17.50
2019-04-27T21:06:03.287Z,17.40
2019-04-27T21:08:33.581Z,17.40
2019-04-27T21:11:02.259Z,17.30
2019-04-27T21:13:31.042Z,17.30
2019-04-27T21:15:59.711Z,17.30
2019-04-27T21:18:28.364Z,17.30
2019-04-27T21:20:57.122Z,17.40
2019-04-27T21:23:25.774Z,17.40
2019-04-27T21:25:54.430Z,17.30
2019-04-27T21:28:23.070Z,17.30
2019-04-27T21:30:51.751Z,17.40
2019-04-27T21:33:21.528Z,17.30
2019-04-27T21:35:51.174Z,17.20
2019-04-27T21:38:19.955Z,17.00
2019-04-27T21:40:48.770Z,16.90
2019-04-27T21:43:21.608Z,16.70
2019-04-27T21:45:51.157Z,16.70
2019-04-27T21:48:21.200Z,16.60
2019-04-27T21:50:51.713Z,16.70
2019-04-27T21:53:38.229Z,16.60
2019-04-27T21:56:08.526Z,16.50
2019-04-27T21:58:37.190Z,16.40
2019-04-27T22:01:21.499Z,16.30
2019-04-27T22:03:50.618Z,16.30
2019-04-27T22:06:19.733Z,16.20
2019-04-27T22:08:48.485Z,16.20
2019-04-27T22:11:17.269Z,16.20
2019-04-27T22:13:45.956Z,16.20
2019-04-27T22:16:14.606Z,16.30
2019-04-27T22:18:43.329Z,16.20
2019-04-27T22:21:12.105Z,16.00
2019-04-27T22:23:48.184Z,15.90
2019-04-27T22:26:16.967Z,15.90
2019-04-27T22:28:49.248Z,15.90
2019-04-27T22:31:16.078Z,15.80
2019-04-27T22:33:44.786Z,15.70
2019-04-27T22:36:13.566Z,15.70
2019-04-27T22:38:42.286Z,15.70
2019-04-27T22:41:13.063Z,15.60
2019-04-27T22:44:01.316Z,15.70
2019-04-27T22:46:34.451Z,15.80
2019-04-27T22:49:03.111Z,15.70
2019-04-27T22:51:31.761Z,15.70
2019-04-27T22:54:01.315Z,15.60
2019-04-27T22:56:32.054Z,15.50
2019-04-27T22:59:04.012Z,15.40
2019-04-27T23:01:51.300Z,15.40
2019-04-27T23:04:41.204Z,15.30
2019-04-27T23:07:11.065Z,15.30
2019-04-27T23:09:40.749Z,15.20
2019-04-27T23:12:11.970Z,15.20
2019-04-27T23:14:41.467Z,15.20
2019-04-27T23:17:14.667Z,15.30
2019-04-27T23:19:43.426Z,15.20
2019-04-27T23:22:12.132Z,15.20
2019-04-27T23:24:41.462Z,15.10
2019-04-27T23:27:11.069Z,15.10
2019-04-27T23:29:41.681Z,15.00
2019-04-27T23:32:11.837Z,14.90
2019-04-27T23:34:41.547Z,14.80
2019-04-27T23:37:10.387Z,14.80
2019-04-27T23:39:39.122Z,14.80
2019-04-27T23:42:07.921Z,14.70
2019-04-27T23:44:36.570Z,14.70
2019-04-27T23:47:05.226Z,14.80
2019-04-27T23:49:33.888Z,14.80
2019-04-27T23:52:06.997Z,14.80
2019-04-27T23:54:35.727Z,14.80
2019-04-27T23:57:04.518Z,14.80
2019-04-27T23:59:33.373Z,14.80
